Time;durP1;ratioP1;P1;durP2;ratioP2;P2;SDS_P1;SDS_P2;PMS_P1;PMS_P2;Temp;Humidity;BMP_temperature;BMP_pressure;BME280_temperature;BME280_humidity;BME280_pressure;Samples;Min_cycle;Max_cycle;Signal;HPM_P1;HPM_P2
2024/02/17 00:00:20;;;;;;;50.97;33.07;;;8.70;99.90;;;;;;5052682;28;20199;-58
2024/02/17 00:02:48;;;;;;;47.77;30.87;;;8.70;99.90;;;;;;5049000;28;20204;-58
2024/02/17 00:05:16;;;;;;;67.17;38.50;;;8.60;99.90;;;;;;5053112;28;20261;-58
2024/02/17 00:07:43;;;;;;;71.10;39.90;;;8.60;99.90;;;;;;5048249;28;20287;-58
2024/02/17 00:10:10;;;;;;;185.47;42.60;;;8.60;99.90;;;;;;5051924;28;20207;-58
2024/02/17 00:12:38;;;;;;;204.17;33.93;;;8.60;99.90;;;;;;5049701;28;20204;-58
2024/02/17 00:15:06;;;;;;;73.37;29.83;;;8.60;99.90;;;;;;5051731;28;20218;-58
2024/02/17 00:17:34;;;;;;;40.87;25.63;;;8.60;99.90;;;;;;5050858;28;20683;-58
2024/02/17 00:20:02;;;;;;;112.60;29.60;;;8.60;99.90;;;;;;5050593;28;20630;-58
2024/02/17 00:22:29;;;;;;;95.73;28.63;;;8.60;99.90;;;;;;5051698;28;20273;-58
2024/02/17 00:24:56;;;;;;;105.00;32.87;;;8.50;99.90;;;;;;5051163;28;20325;-58
2024/02/17 00:27:23;;;;;;;336.80;36.17;;;8.50;99.90;;;;;;5050020;28;20261;-58
2024/02/17 00:29:51;;;;;;;46.90;30.03;;;8.50;99.90;;;;;;5052943;28;20224;-58
2024/02/17 00:32:18;;;;;;;48.97;33.20;;;8.50;99.90;;;;;;5052765;28;20212;-57
2024/02/17 00:34:45;;;;;;;40.43;27.87;;;8.40;99.90;;;;;;5050228;28;20532;-58
2024/02/17 00:37:12;;;;;;;40.13;29.20;;;8.40;99.90;;;;;;5047270;28;20208;-58
2024/02/17 00:39:39;;;;;;;55.73;32.60;;;8.40;99.90;;;;;;5050957;28;20246;-58
2024/02/17 00:42:09;;;;;;;37.97;28.40;;;8.40;99.90;;;;;;5049134;28;20723;-58
2024/02/17 00:44:37;;;;;;;41.33;28.70;;;8.40;99.90;;;;;;5051321;28;20310;-58
2024/02/17 00:47:04;;;;;;;40.97;26.90;;;8.40;99.90;;;;;;5047763;28;20206;-58
2024/02/17 00:49:31;;;;;;;49.10;28.27;;;8.30;99.90;;;;;;5045508;28;20218;-58
2024/02/17 00:51:58;;;;;;;541.20;39.03;;;8.30;99.90;;;;;;5051012;28;20202;-58
2024/02/17 00:54:26;;;;;;;43.03;28.83;;;8.30;99.90;;;;;;5050774;28;20623;-58
2024/02/17 00:56:53;;;;;;;49.17;29.80;;;8.20;99.90;;;;;;5047900;28;20232;-58
2024/02/17 00:59:20;;;;;;;37.33;25.97;;;8.20;99.90;;;;;;5050067;28;20204;-58
2024/02/17 01:01:47;;;;;;;40.03;28.37;;;8.20;99.90;;;;;;5048237;28;20216;-58
2024/02/17 01:04:17;;;;;;;35.20;27.23;;;8.20;99.90;;;;;;5051410;28;20212;-58
2024/02/17 01:06:44;;;;;;;61.97;29.60;;;8.10;99.90;;;;;;5050199;28;20832;-58
2024/02/17 01:09:11;;;;;;;44.40;25.27;;;8.10;99.90;;;;;;5051358;28;20203;-58
2024/02/17 01:11:38;;;;;;;38.47;25.10;;;8.10;99.90;;;;;;5051771;28;20202;-58
2024/02/17 01:14:06;;;;;;;56.07;25.43;;;8.00;99.90;;;;;;5049622;28;20197;-58
2024/02/17 01:16:33;;;;;;;58.73;26.00;;;8.00;99.90;;;;;;5049825;28;20275;-58
2024/02/17 01:19:00;;;;;;;31.80;23.17;;;8.00;99.90;;;;;;5048989;28;20210;-58
2024/02/17 01:21:30;;;;;;;33.17;23.67;;;8.00;99.90;;;;;;5050368;28;20219;-58
2024/02/17 01:23:58;;;;;;;56.90;26.37;;;8.00;99.90;;;;;;5048777;28;20196;-58
2024/02/17 01:26:25;;;;;;;121.43;29.20;;;7.90;99.80;;;;;;5047295;28;20263;-58
2024/02/17 01:28:53;;;;;;;81.93;26.93;;;7.90;99.70;;;;;;5048893;28;20196;-58
2024/02/17 01:31:20;;;;;;;35.90;28.00;;;7.80;99.70;;;;;;5044445;28;20257;-58
2024/02/17 01:33:50;;;;;;;52.27;25.47;;;7.80;99.80;;;;;;5048138;28;20532;-58
2024/02/17 01:36:17;;;;;;;295.80;32.13;;;7.80;99.80;;;;;;5051279;28;20301;-58
2024/02/17 01:38:45;;;;;;;347.37;28.77;;;7.80;99.80;;;;;;5049505;28;20190;-58
2024/02/17 01:41:13;;;;;;;264.53;30.33;;;7.70;99.80;;;;;;5051392;28;20614;-58
2024/02/17 01:43:40;;;;;;;38.60;26.17;;;7.70;99.90;;;;;;5045945;28;20262;-58
2024/02/17 01:46:08;;;;;;;32.60;24.80;;;7.70;99.90;;;;;;5048335;28;20623;-58
2024/02/17 01:48:35;;;;;;;35.93;23.47;;;7.70;99.90;;;;;;5052002;28;20221;-58
2024/02/17 01:51:06;;;;;;;33.00;25.60;;;7.70;99.90;;;;;;5049470;28;20211;-58
2024/02/17 01:53:33;;;;;;;32.93;25.90;;;7.70;99.90;;;;;;5048309;28;20738;-58
2024/02/17 01:56:01;;;;;;;30.03;23.83;;;7.70;99.90;;;;;;5048949;28;20617;-58
2024/02/17 01:58:28;;;;;;;27.90;22.57;;;7.60;99.90;;;;;;5048874;28;20194;-58
2024/02/17 02:00:57;;;;;;;29.00;21.17;;;7.60;99.90;;;;;;5050572;28;20194;-58
2024/02/17 02:03:24;;;;;;;30.30;21.93;;;7.60;99.90;;;;;;5050740;28;20277;-58
2024/02/17 02:05:51;;;;;;;30.10;22.30;;;7.50;99.90;;;;;;5051167;28;20203;-58
2024/02/17 02:08:19;;;;;;;51.77;24.43;;;7.50;99.90;;;;;;5050496;28;20199;-58
2024/02/17 02:10:46;;;;;;;64.27;25.73;;;7.50;99.90;;;;;;5047364;28;20226;-58
2024/02/17 02:13:13;;;;;;;45.43;23.87;;;7.50;99.90;;;;;;5045234;28;20233;-58
2024/02/17 02:15:42;;;;;;;113.17;24.33;;;7.50;99.90;;;;;;5047495;28;20260;-58
2024/02/17 02:18:21;;;;;;;96.23;23.90;;;7.50;99.90;;;;;;5050253;28;20600;-58
2024/02/17 02:20:49;;;;;;;73.27;23.60;;;7.50;99.90;;;;;;5048527;28;20223;-59
2024/02/17 02:23:17;;;;;;;62.63;22.80;;;7.50;99.90;;;;;;5050239;28;20684;-58
2024/02/17 02:25:54;;;;;;;53.97;22.37;;;7.50;99.90;;;;;;5046987;28;20230;-58
2024/02/17 02:28:22;;;;;;;39.43;23.53;;;7.50;99.90;;;;;;5048915;28;20203;-58
2024/02/17 02:30:50;;;;;;;39.47;23.33;;;7.40;99.90;;;;;;5054957;28;20199;-58
2024/02/17 02:33:18;;;;;;;35.50;23.17;;;7.40;99.90;;;;;;5053226;28;20701;-58
2024/02/17 02:35:45;;;;;;;41.73;22.60;;;7.40;99.90;;;;;;5054088;28;20195;-58
2024/02/17 02:38:12;;;;;;;34.03;23.17;;;7.40;99.90;;;;;;5051412;28;20393;-58
2024/02/17 02:40:39;;;;;;;52.27;22.57;;;7.40;99.90;;;;;;5049720;28;20661;-58
2024/02/17 02:43:07;;;;;;;68.23;23.23;;;7.30;99.90;;;;;;5052803;28;20651;-58
2024/02/17 02:45:34;;;;;;;53.40;21.27;;;7.30;99.90;;;;;;5052901;28;20201;-58
2024/02/17 02:48:01;;;;;;;31.73;20.67;;;7.30;99.90;;;;;;5053207;28;20224;-58
2024/02/17 02:50:28;;;;;;;31.23;20.90;;;7.20;99.90;;;;;;5054095;28;20211;-58
2024/02/17 02:52:55;;;;;;;27.50;20.40;;;7.20;99.90;;;;;;5054783;28;20302;-58
2024/02/17 02:55:23;;;;;;;28.53;20.67;;;7.20;99.90;;;;;;5054781;28;20219;-58
2024/02/17 02:57:50;;;;;;;24.17;19.93;;;7.10;99.90;;;;;;5048460;28;20193;-58
2024/02/17 03:00:17;;;;;;;37.07;19.67;;;7.10;99.90;;;;;;5053606;28;20205;-58
2024/02/17 03:02:44;;;;;;;67.00;20.40;;;7.10;99.90;;;;;;5049154;28;20213;-58
2024/02/17 03:05:12;;;;;;;59.00;19.03;;;7.00;99.90;;;;;;5051617;28;20643;-58
2024/02/17 03:07:39;;;;;;;63.57;19.83;;;7.00;99.90;;;;;;5050675;28;20530;-58
2024/02/17 03:10:07;;;;;;;49.57;18.67;;;7.00;99.90;;;;;;5048226;28;20276;-58
2024/02/17 03:12:34;;;;;;;47.10;21.37;;;6.90;99.90;;;;;;5051047;28;20194;-58
2024/02/17 03:15:04;;;;;;;58.73;20.90;;;6.90;99.90;;;;;;5050912;28;20198;-58
2024/02/17 03:17:56;;;;;;;47.07;21.10;;;6.90;99.90;;;;;;5048660;28;20346;-58
2024/02/17 03:20:24;;;;;;;45.53;22.53;;;6.90;99.90;;;;;;5051113;28;20273;-59
2024/02/17 03:22:51;;;;;;;37.77;20.87;;;6.90;99.90;;;;;;5050552;28;21047;-58
2024/02/17 03:25:18;;;;;;;43.13;22.70;;;6.90;99.90;;;;;;5052397;28;20188;-58
2024/02/17 03:27:45;;;;;;;22.43;18.17;;;6.90;99.90;;;;;;5053369;28;20196;-58
2024/02/17 03:30:12;;;;;;;28.63;20.70;;;6.90;99.90;;;;;;5048467;28;20224;-58
2024/02/17 03:32:40;;;;;;;26.33;20.67;;;6.90;99.90;;;;;;5052887;28;20327;-58
2024/02/17 03:35:07;;;;;;;22.87;18.70;;;6.90;99.90;;;;;;5053057;28;20203;-58
2024/02/17 03:37:35;;;;;;;23.67;18.90;;;6.80;99.90;;;;;;5052118;28;20200;-58
2024/02/17 03:40:06;;;;;;;24.73;19.80;;;6.80;99.90;;;;;;5053982;28;20210;-58
2024/02/17 03:42:33;;;;;;;22.23;18.30;;;6.80;99.90;;;;;;5049332;28;20557;-58
2024/02/17 03:45:01;;;;;;;20.83;17.70;;;6.80;99.90;;;;;;5050735;28;20226;-58
2024/02/17 03:47:28;;;;;;;34.37;21.87;;;6.70;99.90;;;;;;5049810;28;20194;-58
2024/02/17 03:49:55;;;;;;;59.30;21.47;;;6.70;99.90;;;;;;5052645;28;20280;-58
2024/02/17 03:52:22;;;;;;;35.30;21.00;;;6.70;99.90;;;;;;5049345;28;20212;-58
2024/02/17 03:54:49;;;;;;;50.07;21.57;;;6.70;99.90;;;;;;5050394;28;20203;-58
2024/02/17 03:57:19;;;;;;;52.67;19.57;;;6.70;99.90;;;;;;5047623;28;20667;-58
2024/02/17 03:59:47;;;;;;;97.13;19.57;;;6.70;99.90;;;;;;5048421;28;20195;-58
2024/02/17 04:02:14;;;;;;;125.57;19.20;;;6.70;99.90;;;;;;5052581;28;20210;-58
2024/02/17 04:04:42;;;;;;;70.60;17.53;;;6.60;99.90;;;;;;5050357;28;20199;-58
2024/02/17 04:07:09;;;;;;;375.70;34.37;;;6.60;99.90;;;;;;5051715;28;20516;-58
2024/02/17 04:09:36;;;;;;;55.43;19.53;;;6.60;99.90;;;;;;5051598;28;20211;-58
2024/02/17 04:12:03;;;;;;;173.30;21.17;;;6.50;99.90;;;;;;5049964;28;20282;-58
2024/02/17 04:14:31;;;;;;;62.20;17.97;;;6.60;99.90;;;;;;5052811;28;20235;-58
2024/02/17 04:16:58;;;;;;;95.00;18.90;;;6.50;99.90;;;;;;5050742;28;20195;-58
2024/02/17 04:19:25;;;;;;;89.60;19.23;;;6.50;99.90;;;;;;5052022;28;20207;-57
2024/02/17 04:21:52;;;;;;;41.83;18.33;;;6.40;99.90;;;;;;5052697;28;20275;-57
2024/02/17 04:24:19;;;;;;;62.13;19.57;;;6.40;99.90;;;;;;5053172;28;20898;-58
2024/02/17 04:26:46;;;;;;;58.70;18.83;;;6.40;99.90;;;;;;5051133;28;20676;-58
2024/02/17 04:29:16;;;;;;;104.17;20.30;;;6.40;99.90;;;;;;5046783;28;20214;-58
2024/02/17 04:31:44;;;;;;;58.33;19.63;;;6.40;99.90;;;;;;5051657;28;20295;-58
2024/02/17 04:34:11;;;;;;;66.17;19.10;;;6.30;99.90;;;;;;5047936;28;20239;-58
2024/02/17 04:36:39;;;;;;;113.07;19.37;;;6.30;99.90;;;;;;5032447;28;20236;-58
2024/02/17 04:39:11;;;;;;;62.97;19.63;;;6.30;99.90;;;;;;5053796;28;20216;-58
2024/02/17 04:41:40;;;;;;;166.10;22.37;;;6.30;99.90;;;;;;5053013;28;20199;-58
2024/02/17 04:44:09;;;;;;;44.97;18.73;;;6.30;99.90;;;;;;5044043;28;20217;-60
2024/02/17 04:46:38;;;;;;;345.50;32.67;;;6.30;99.90;;;;;;5051102;28;20303;-58
2024/02/17 04:49:06;;;;;;;336.50;28.67;;;6.20;99.90;;;;;;5048747;28;20510;-58
2024/02/17 04:51:35;;;;;;;147.83;24.83;;;6.20;99.90;;;;;;5051670;28;20216;-58
2024/02/17 04:54:06;;;;;;;37.50;21.43;;;6.20;99.90;;;;;;5051191;28;20209;-59
2024/02/17 04:56:35;;;;;;;53.73;20.43;;;6.20;99.90;;;;;;5052679;28;20207;-59
2024/02/17 04:59:04;;;;;;;30.50;18.63;;;6.10;99.90;;;;;;5036290;28;20199;-59
2024/02/17 05:01:34;;;;;;;38.57;19.20;;;6.10;99.90;;;;;;5052424;28;20253;-59
2024/02/17 05:04:02;;;;;;;34.83;20.23;;;6.00;99.90;;;;;;5034360;28;20209;-59
2024/02/17 05:06:32;;;;;;;40.10;19.63;;;6.00;99.90;;;;;;5044756;28;20231;-59
2024/02/17 05:09:00;;;;;;;246.00;26.10;;;6.10;99.90;;;;;;5052587;28;20209;-58
2024/02/17 05:11:28;;;;;;;98.13;21.90;;;6.10;99.90;;;;;;5052809;28;20205;-58
2024/02/17 05:13:56;;;;;;;41.97;17.37;;;6.10;99.90;;;;;;5053242;28;20210;-58
2024/02/17 05:16:26;;;;;;;25.10;15.83;;;6.00;99.90;;;;;;5045797;28;20267;-58
2024/02/17 05:18:54;;;;;;;28.47;17.37;;;6.00;99.90;;;;;;5047152;28;20215;-58
2024/02/17 05:21:21;;;;;;;32.67;16.83;;;6.00;99.90;;;;;;5052223;28;20244;-58
2024/02/17 05:23:49;;;;;;;21.80;17.33;;;6.00;99.90;;;;;;5045178;28;20527;-58
2024/02/17 05:26:18;;;;;;;25.40;17.23;;;6.00;99.90;;;;;;5029084;28;20708;-58
2024/02/17 05:28:46;;;;;;;56.70;20.80;;;6.00;99.90;;;;;;5049507;28;20301;-58
2024/02/17 05:31:27;;;;;;;70.77;18.83;;;6.00;99.90;;;;;;5049651;28;20646;-58
2024/02/17 05:33:56;;;;;;;33.87;17.20;;;5.90;99.90;;;;;;5032502;28;20246;-58
2024/02/17 05:36:25;;;;;;;23.23;16.70;;;5.90;99.90;;;;;;5033721;28;20202;-59
2024/02/17 05:38:54;;;;;;;24.63;14.80;;;5.90;99.90;;;;;;5026537;28;20656;-58
2024/02/17 05:41:22;;;;;;;19.23;15.30;;;5.90;99.90;;;;;;5050833;28;20711;-58
2024/02/17 05:43:49;;;;;;;26.07;16.00;;;5.90;99.90;;;;;;5051921;28;20227;-58
2024/02/17 05:46:17;;;;;;;18.90;16.00;;;5.90;99.90;;;;;;5052149;28;20192;-58
2024/02/17 05:48:46;;;;;;;16.67;14.87;;;5.80;99.90;;;;;;5049507;28;20232;-59
2024/02/17 05:51:14;;;;;;;18.30;15.40;;;5.90;99.90;;;;;;5052045;28;20214;-59
2024/02/17 05:53:43;;;;;;;16.77;14.97;;;5.90;99.90;;;;;;5051800;28;20534;-59
2024/02/17 05:56:11;;;;;;;16.23;14.53;;;5.90;99.90;;;;;;5052605;28;20252;-58
2024/02/17 05:58:39;;;;;;;16.83;15.03;;;5.90;99.90;;;;;;5052524;28;20278;-59
2024/02/17 06:01:07;;;;;;;19.33;16.30;;;5.90;99.90;;;;;;5051150;28;20248;-58
2024/02/17 06:03:36;;;;;;;15.90;14.20;;;5.90;99.90;;;;;;5051459;28;20216;-59
2024/02/17 06:06:04;;;;;;;16.90;15.10;;;5.80;99.90;;;;;;5054341;28;20210;-59
2024/02/17 06:08:32;;;;;;;16.07;14.37;;;5.80;99.90;;;;;;5055039;28;20669;-58
2024/02/17 06:11:01;;;;;;;16.47;14.77;;;5.90;99.90;;;;;;5056817;28;20242;-59
2024/02/17 06:13:30;;;;;;;16.03;14.33;;;5.80;99.90;;;;;;5055230;28;20225;-58
2024/02/17 06:15:58;;;;;;;15.07;13.57;;;5.80;99.90;;;;;;5053368;28;20216;-59
2024/02/17 06:21:19;;;;;;;13.50;12.10;;;5.80;99.90;;;;;;5052024;28;20221;-58
2024/02/17 06:23:47;;;;;;;16.07;13.70;;;5.80;99.90;;;;;;5055572;28;20238;-59
2024/02/17 06:26:29;;;;;;;16.07;14.37;;;5.80;99.90;;;;;;5052681;28;20580;-59
2024/02/17 06:29:08;;;;;;;14.03;12.63;;;5.80;99.90;;;;;;5053847;28;20205;-59
2024/02/17 06:31:37;;;;;;;12.23;11.07;;;5.80;99.90;;;;;;5054383;28;20297;-59
2024/02/17 06:34:07;;;;;;;13.07;11.77;;;5.80;99.80;;;;;;5053741;28;20266;-59
2024/02/17 06:36:42;;;;;;;14.27;12.77;;;5.80;99.80;;;;;;5036639;28;20219;-59
2024/02/17 06:39:10;;;;;;;13.77;12.37;;;5.80;99.90;;;;;;5066380;28;20217;-59
2024/02/17 06:41:38;;;;;;;12.00;10.80;;;5.80;99.80;;;;;;5050013;28;20198;-59
2024/02/17 06:44:06;;;;;;;12.70;11.43;;;5.80;99.80;;;;;;5054962;28;20258;-59
2024/02/17 06:46:33;;;;;;;12.37;11.17;;;5.80;99.90;;;;;;5054870;28;20239;-59
2024/02/17 06:49:02;;;;;;;12.40;11.00;;;5.80;99.90;;;;;;5054079;28;20221;-60
2024/02/17 06:51:30;;;;;;;12.60;11.30;;;5.80;99.80;;;;;;5049860;28;20227;-59
2024/02/17 06:53:58;;;;;;;14.53;13.00;;;5.90;99.80;;;;;;5036296;28;20208;-59
2024/02/17 06:56:29;;;;;;;17.13;13.93;;;5.80;99.80;;;;;;5052535;28;20199;-59
2024/02/17 06:58:57;;;;;;;25.50;17.07;;;5.90;99.90;;;;;;5030688;28;20205;-59
2024/02/17 07:01:26;;;;;;;14.17;12.67;;;5.90;99.90;;;;;;5037031;28;20673;-59
2024/02/17 07:03:55;;;;;;;15.57;12.43;;;6.00;99.90;;;;;;5053071;28;20238;-59
2024/02/17 07:06:22;;;;;;;17.47;12.07;;;6.00;99.90;;;;;;5053496;28;20215;-59
2024/02/17 07:08:51;;;;;;;15.17;12.93;;;6.00;99.90;;;;;;5054113;28;20226;-59
2024/02/17 07:11:19;;;;;;;16.93;12.90;;;5.90;99.80;;;;;;5033461;28;20232;-59
2024/02/17 07:13:47;;;;;;;20.07;15.40;;;6.00;99.80;;;;;;5043826;28;20229;-59
2024/02/17 07:16:15;;;;;;;27.57;12.23;;;6.00;99.90;;;;;;5049284;28;20294;-59
2024/02/17 07:18:44;;;;;;;10.27;9.37;;;6.00;99.90;;;;;;5036830;28;20218;-59
2024/02/17 07:21:12;;;;;;;14.27;11.93;;;6.00;99.80;;;;;;5054702;28;20212;-59
2024/02/17 07:23:40;;;;;;;23.87;14.57;;;6.00;99.80;;;;;;5054806;28;20302;-59
2024/02/17 07:26:08;;;;;;;16.30;14.60;;;6.00;99.70;;;;;;5036365;28;20717;-59
2024/02/17 07:28:37;;;;;;;25.73;16.13;;;6.00;99.70;;;;;;5053131;28;20207;-59
2024/02/17 07:31:06;;;;;;;17.33;15.30;;;6.00;99.70;;;;;;5053323;28;20208;-59
2024/02/17 07:33:34;;;;;;;18.30;15.60;;;6.00;99.70;;;;;;4992041;28;1958553;-60
2024/02/17 07:36:03;;;;;;;20.87;15.27;;;6.00;99.70;;;;;;5059641;28;20712;-59
2024/02/17 07:38:30;;;;;;;18.07;15.50;;;6.10;99.70;;;;;;5047915;28;20196;-60
2024/02/17 07:40:58;;;;;;;18.20;14.67;;;6.10;99.70;;;;;;5053585;28;20212;-59
2024/02/17 07:43:27;;;;;;;19.53;16.50;;;6.20;99.80;;;;;;5054106;28;20218;-59
2024/02/17 07:45:55;;;;;;;19.83;16.13;;;6.20;99.80;;;;;;5053427;28;20255;-59
2024/02/17 07:48:22;;;;;;;19.17;17.10;;;6.30;99.90;;;;;;5053049;28;20227;-59
2024/02/17 07:50:51;;;;;;;23.87;19.10;;;6.30;99.90;;;;;;5051044;28;20511;-59
2024/02/17 07:53:20;;;;;;;19.00;16.23;;;6.40;99.90;;;;;;5053800;28;20202;-59
2024/02/17 07:55:48;;;;;;;23.73;17.67;;;6.50;99.90;;;;;;5044678;28;20201;-59
2024/02/17 07:58:17;;;;;;;21.43;16.47;;;6.60;99.90;;;;;;5050800;28;20274;-59
2024/02/17 08:00:45;;;;;;;20.13;17.03;;;6.70;99.90;;;;;;5054217;28;20209;-59
2024/02/17 08:03:13;;;;;;;24.27;18.13;;;6.70;99.90;;;;;;5051783;28;20287;-60
2024/02/17 08:05:41;;;;;;;24.83;19.97;;;6.80;99.90;;;;;;5051503;28;20196;-59
2024/02/17 08:08:09;;;;;;;26.00;19.13;;;6.90;99.90;;;;;;5053956;28;20207;-59
2024/02/17 08:10:38;;;;;;;33.60;21.17;;;7.10;99.90;;;;;;5052205;28;20322;-59
2024/02/17 08:13:06;;;;;;;39.70;24.30;;;7.10;99.90;;;;;;5054847;28;20210;-59
2024/02/17 08:15:34;;;;;;;34.33;24.63;;;7.20;99.90;;;;;;5064371;28;20504;-60
2024/02/17 08:18:03;;;;;;;40.70;26.80;;;7.40;99.90;;;;;;5054053;28;20294;-59
2024/02/17 08:20:30;;;;;;;41.60;27.87;;;7.50;99.90;;;;;;5054846;28;20219;-59
2024/02/17 08:23:00;;;;;;;43.13;29.10;;;7.70;99.90;;;;;;5051694;28;20595;-60
2024/02/17 08:25:28;;;;;;;44.63;30.83;;;7.80;99.90;;;;;;5054041;28;20249;-59
2024/02/17 08:27:56;;;;;;;48.50;32.60;;;8.00;99.90;;;;;;5052717;28;20251;-59
2024/02/17 08:30:25;;;;;;;54.77;35.17;;;8.20;99.90;;;;;;5052982;28;20715;-59
2024/02/17 08:32:55;;;;;;;57.77;36.83;;;8.40;99.90;;;;;;5052350;28;20235;-59
2024/02/17 08:35:24;;;;;;;59.83;35.93;;;8.60;99.90;;;;;;5051651;28;20744;-59
2024/02/17 08:37:52;;;;;;;55.43;35.13;;;8.80;99.90;;;;;;5061185;28;20296;-59
2024/02/17 08:40:19;;;;;;;64.47;41.70;;;9.00;99.90;;;;;;5049364;28;20278;-60
2024/02/17 08:42:48;;;;;;;68.67;44.83;;;9.10;99.90;;;;;;5054224;28;20206;-60
2024/02/17 08:45:16;;;;;;;108.87;63.10;;;9.30;99.90;;;;;;5051969;28;20700;-59
2024/02/17 08:47:43;;;;;;;93.53;55.53;;;9.50;99.90;;;;;;5052360;28;20529;-59
2024/02/17 08:50:12;;;;;;;93.97;55.90;;;9.60;99.90;;;;;;5051084;28;20206;-59
2024/02/17 08:52:41;;;;;;;100.70;61.33;;;9.80;99.90;;;;;;5050883;28;20255;-60
2024/02/17 08:55:10;;;;;;;107.20;64.13;;;10.00;99.90;;;;;;5053372;28;20216;-59
2024/02/17 08:57:38;;;;;;;112.33;65.87;;;10.20;99.90;;;;;;5053110;28;20290;-60
2024/02/17 09:00:06;;;;;;;152.40;88.80;;;10.40;99.90;;;;;;5050433;28;20202;-59
2024/02/17 09:02:34;;;;;;;152.10;91.13;;;10.60;99.90;;;;;;5050154;28;20204;-61
2024/02/17 09:05:05;;;;;;;139.93;88.93;;;10.80;99.90;;;;;;5054635;28;20210;-60
2024/02/17 09:07:33;;;;;;;139.50;87.33;;;11.00;99.90;;;;;;5053066;28;20198;-60
2024/02/17 09:10:03;;;;;;;135.30;82.37;;;11.20;99.90;;;;;;5050695;28;20299;-59
2024/02/17 09:12:30;;;;;;;134.77;83.93;;;11.40;99.80;;;;;;5050487;28;20569;-59
2024/02/17 09:14:58;;;;;;;141.57;86.03;;;11.60;99.60;;;;;;5049412;28;20304;-60
2024/02/17 09:17:25;;;;;;;134.80;83.67;;;11.70;99.40;;;;;;5047434;28;20201;-59
2024/02/17 09:19:53;;;;;;;137.97;83.73;;;11.90;99.10;;;;;;5046914;28;20226;-60
2024/02/17 09:22:20;;;;;;;131.10;81.73;;;12.00;98.80;;;;;;5047732;28;20674;-59
2024/02/17 09:24:49;;;;;;;128.40;80.73;;;12.10;98.70;;;;;;5048899;28;20236;-58
2024/02/17 09:27:17;;;;;;;125.97;78.97;;;12.20;98.30;;;;;;5050374;28;20193;-58
2024/02/17 09:29:47;;;;;;;136.60;85.27;;;12.20;98.00;;;;;;5052156;28;20220;-58
2024/02/17 09:32:15;;;;;;;135.90;85.57;;;12.20;97.90;;;;;;5050075;28;20280;-59
2024/02/17 09:34:45;;;;;;;131.17;83.63;;;12.30;98.00;;;;;;5050683;28;20258;-58
2024/02/17 09:37:13;;;;;;;119.93;77.53;;;12.40;98.10;;;;;;5050936;28;20198;-59
2024/02/17 09:39:43;;;;;;;124.50;81.73;;;12.50;98.20;;;;;;5047414;28;20195;-59
2024/02/17 09:42:11;;;;;;;134.43;85.47;;;12.60;98.10;;;;;;5042560;28;20218;-59
2024/02/17 09:44:40;;;;;;;134.90;87.10;;;12.80;98.00;;;;;;5052079;28;20678;-59
2024/02/17 09:47:09;;;;;;;153.43;96.80;;;12.90;97.80;;;;;;5052235;28;20222;-59
2024/02/17 09:49:40;;;;;;;149.17;94.80;;;13.00;97.80;;;;;;5051775;28;20198;-59
2024/02/17 09:52:09;;;;;;;147.03;96.50;;;13.10;97.80;;;;;;5067456;28;20301;-58
2024/02/17 09:54:38;;;;;;;145.97;95.77;;;13.20;97.50;;;;;;5047455;28;20214;-60
2024/02/17 09:57:09;;;;;;;157.70;98.40;;;13.30;97.30;;;;;;5051183;28;20198;-60
2024/02/17 09:59:36;;;;;;;144.77;95.77;;;13.30;97.20;;;;;;5042413;28;20226;-59
2024/02/17 10:02:04;;;;;;;141.20;94.30;;;13.40;97.10;;;;;;5049689;28;20242;-59
2024/02/17 10:04:32;;;;;;;145.13;96.50;;;13.40;96.90;;;;;;5051560;28;20660;-59
2024/02/17 10:07:03;;;;;;;158.27;98.27;;;13.40;96.80;;;;;;5030766;28;20195;-58
2024/02/17 10:09:34;;;;;;;137.83;95.13;;;13.50;96.90;;;;;;5042288;28;20272;-59
2024/02/17 10:12:07;;;;;;;151.03;101.17;;;13.50;96.80;;;;;;5033405;28;20564;-59
2024/02/17 10:14:35;;;;;;;151.23;98.23;;;13.60;96.70;;;;;;5049730;28;20664;-59
2024/02/17 10:17:03;;;;;;;155.47;99.37;;;13.70;96.60;;;;;;5050499;28;20583;-58
2024/02/17 10:19:31;;;;;;;150.73;97.13;;;13.80;96.50;;;;;;5049661;28;20290;-59
2024/02/17 10:21:58;;;;;;;145.90;93.73;;;13.90;96.30;;;;;;5050436;28;20222;-59
2024/02/17 10:24:26;;;;;;;142.20;94.00;;;14.00;96.20;;;;;;5063204;28;20235;-59
2024/02/17 10:26:54;;;;;;;140.60;90.60;;;14.10;96.00;;;;;;5049718;28;20201;-58
2024/02/17 10:29:26;;;;;;;134.27;86.80;;;14.20;95.90;;;;;;5050947;28;20200;-59
2024/02/17 10:31:54;;;;;;;137.83;90.37;;;14.30;95.70;;;;;;5047895;28;20219;-59
2024/02/17 10:34:22;;;;;;;133.17;84.23;;;14.40;95.40;;;;;;5050689;28;20236;-59
2024/02/17 10:36:51;;;;;;;130.57;87.00;;;14.50;95.00;;;;;;5051235;28;20612;-59
2024/02/17 10:39:21;;;;;;;133.20;87.20;;;14.60;94.60;;;;;;5051907;28;20499;-59
2024/02/17 10:41:50;;;;;;;135.33;86.47;;;14.60;94.20;;;;;;5047229;28;20221;-59
2024/02/17 10:44:18;;;;;;;116.03;78.40;;;14.70;94.10;;;;;;5048689;28;20226;-59
2024/02/17 10:46:47;;;;;;;114.80;75.03;;;14.70;94.10;;;;;;5035227;28;20227;-59
2024/02/17 10:49:30;;;;;;;114.53;72.97;;;14.80;93.90;;;;;;5051765;28;20193;-59
2024/02/17 10:52:05;;;;;;;114.83;75.40;;;14.90;93.60;;;;;;5053633;28;20299;-59
2024/02/17 10:54:45;;;;;;;108.93;72.07;;;15.00;93.30;;;;;;5052788;28;20194;-59
2024/02/17 10:57:16;;;;;;;116.53;79.57;;;15.00;93.10;;;;;;5035515;28;20208;-58
2024/02/17 10:59:45;;;;;;;122.43;82.67;;;15.10;93.10;;;;;;5052709;28;20672;-58
2024/02/17 11:02:15;;;;;;;122.30;80.03;;;15.20;92.90;;;;;;5051280;28;20278;-58
2024/02/17 11:04:44;;;;;;;127.43;81.47;;;15.30;92.80;;;;;;5055770;28;20220;-58
2024/02/17 11:07:14;;;;;;;124.13;82.43;;;15.40;92.60;;;;;;5050487;28;20224;-59
2024/02/17 11:09:46;;;;;;;124.03;79.33;;;15.40;92.60;;;;;;5055183;28;20280;-59
2024/02/17 11:12:28;;;;;;;119.07;81.60;;;15.50;92.70;;;;;;5053652;28;20194;-58
2024/02/17 11:15:11;;;;;;;123.57;79.17;;;15.60;92.50;;;;;;5053852;28;20231;-59
2024/02/17 11:17:55;;;;;;;126.87;82.77;;;15.70;92.30;;;;;;5053499;28;20290;-59
2024/02/17 11:20:25;;;;;;;120.60;80.77;;;15.80;92.10;;;;;;5054814;28;20303;-58
2024/02/17 11:23:01;;;;;;;122.33;81.43;;;15.80;91.80;;;;;;5054508;28;20246;-59
2024/02/17 11:25:35;;;;;;;129.00;84.13;;;15.90;91.60;;;;;;5055552;28;20205;-59
2024/02/17 11:28:17;;;;;;;127.07;81.63;;;15.90;91.50;;;;;;5053202;28;21217;-59
2024/02/17 11:30:49;;;;;;;122.23;82.50;;;15.90;91.40;;;;;;5061209;28;20191;-59
2024/02/17 11:33:21;;;;;;;129.73;84.70;;;15.90;91.30;;;;;;5054953;28;20248;-58
2024/02/17 11:35:50;;;;;;;135.33;85.30;;;15.90;91.20;;;;;;5058323;28;20213;-59
2024/02/17 11:38:25;;;;;;;122.33;82.80;;;15.90;91.00;;;;;;5051080;28;20630;-59
2024/02/17 11:40:57;;;;;;;134.17;85.50;;;16.00;90.90;;;;;;5053948;28;20206;-59
2024/02/17 11:43:27;;;;;;;136.80;88.40;;;16.00;90.90;;;;;;5052071;28;20258;-58
2024/02/17 11:45:57;;;;;;;132.77;87.40;;;16.00;91.10;;;;;;5053698;28;20210;-58
2024/02/17 11:48:27;;;;;;;125.87;85.03;;;16.10;90.70;;;;;;5051669;28;20293;-58
2024/02/17 11:51:23;;;;;;;135.87;89.30;;;16.10;90.60;;;;;;5052758;28;20248;-59
2024/02/17 11:53:56;;;;;;;125.53;86.60;;;16.20;90.70;;;;;;5048663;28;20631;-59
2024/02/17 11:56:25;;;;;;;127.73;89.47;;;16.20;90.80;;;;;;5051019;28;20194;-59
2024/02/17 11:58:54;;;;;;;133.63;90.00;;;16.30;90.70;;;;;;5037296;28;20366;-59
2024/02/17 12:01:22;;;;;;;133.00;89.87;;;16.30;90.50;;;;;;5051801;28;20200;-59
2024/02/17 12:03:53;;;;;;;142.63;94.40;;;16.40;90.30;;;;;;5052594;28;20223;-59
2024/02/17 12:06:25;;;;;;;126.30;88.30;;;16.40;89.50;;;;;;5053522;28;20534;-59
2024/02/17 12:08:54;;;;;;;133.90;91.03;;;16.40;89.20;;;;;;5053923;28;20232;-59
2024/02/17 12:11:22;;;;;;;131.80;91.10;;;16.40;89.00;;;;;;5054409;28;20201;-58
2024/02/17 12:13:50;;;;;;;137.67;93.33;;;16.40;90.00;;;;;;5055236;28;20202;-59
2024/02/17 12:16:18;;;;;;;139.43;91.60;;;16.40;89.70;;;;;;5051276;28;20229;-58
2024/02/17 12:18:47;;;;;;;136.13;92.63;;;16.50;89.90;;;;;;5051217;28;20227;-58
2024/02/17 12:21:16;;;;;;;137.13;95.67;;;16.50;89.60;;;;;;5048974;28;20222;-58
2024/02/17 12:23:44;;;;;;;143.40;97.73;;;16.50;89.40;;;;;;5035443;28;20259;-58
2024/02/17 12:26:14;;;;;;;147.00;101.23;;;16.60;89.50;;;;;;5034731;28;20632;-58
2024/02/17 12:29:03;;;;;;;143.47;97.30;;;16.60;90.20;;;;;;5052222;28;20204;-58
2024/02/17 12:31:35;;;;;;;137.37;96.70;;;16.60;89.80;;;;;;5051341;28;20203;-58
2024/02/17 12:34:03;;;;;;;142.00;97.73;;;16.70;89.70;;;;;;5049275;28;20246;-58
2024/02/17 12:36:31;;;;;;;150.07;102.50;;;16.70;89.80;;;;;;5050967;28;20293;-58
2024/02/17 12:39:04;;;;;;;140.03;96.03;;;16.80;89.50;;;;;;5052640;28;20208;-58
2024/02/17 12:41:33;;;;;;;145.83;97.57;;;16.80;88.60;;;;;;5051856;28;20561;-58